createdAt,value
2018-05-13T00:01:18.483Z,99730.17
2018-05-13T00:03:44.163Z,99726.33
2018-05-13T00:06:09.910Z,99733.81
2018-05-13T00:08:35.462Z,99725.45
2018-05-13T00:11:01.046Z,99724.70
2018-05-13T00:13:26.838Z,99738.09
2018-05-13T00:15:52.495Z,99730.56
2018-05-13T00:18:18.005Z,99730.20
2018-05-13T00:20:43.615Z,99743.55
2018-05-13T00:23:09.445Z,99767.11
2018-05-13T00:25:35.025Z,99774.92
2018-05-13T00:28:00.625Z,99774.13
2018-05-13T00:30:26.278Z,99764.28
2018-05-13T00:32:51.799Z,99771.36
2018-05-13T00:35:17.376Z,99753.80
2018-05-13T00:37:43.199Z,99756.47
2018-05-13T00:40:08.980Z,99758.81
2018-05-13T00:42:34.489Z,99756.86
2018-05-13T00:45:00.242Z,99749.74
2018-05-13T00:47:25.797Z,99753.72
2018-05-13T00:49:51.328Z,99744.24
2018-05-13T00:52:17.109Z,99752.55
2018-05-13T00:54:51.670Z,99760.05
2018-05-13T00:57:17.192Z,99776.09
2018-05-13T00:59:42.950Z,99787.86
2018-05-13T01:02:08.466Z,99787.41
2018-05-13T01:04:34.135Z,99787.39
2018-05-13T01:07:00.251Z,99790.94
2018-05-13T01:09:25.820Z,99799.22
2018-05-13T01:11:51.362Z,99810.20
2018-05-13T01:14:17.065Z,99809.02
2018-05-13T01:16:42.587Z,99816.08
2018-05-13T01:19:08.108Z,99822.80
2018-05-13T01:21:33.885Z,99837.00
2018-05-13T01:23:59.726Z,99849.61
2018-05-13T01:26:25.263Z,99845.68
2018-05-13T01:28:51.091Z,99850.37
2018-05-13T01:31:16.608Z,99852.38
2018-05-13T01:33:42.190Z,99859.47
2018-05-13T01:36:08.399Z,99872.88
2018-05-13T01:38:33.989Z,99861.06
2018-05-13T01:40:59.518Z,99879.42
2018-05-13T01:43:25.272Z,99876.92
2018-05-13T01:45:50.824Z,99880.44
2018-05-13T01:48:16.403Z,99884.67
2018-05-13T01:50:42.184Z,99864.98
2018-05-13T01:53:07.669Z,99864.56
2018-05-13T01:55:33.192Z,99864.56
2018-05-13T01:57:59.416Z,99868.44
2018-05-13T02:00:25.160Z,99868.85
2018-05-13T02:02:50.775Z,99872.81
2018-05-13T02:05:16.529Z,99873.58
2018-05-13T02:07:42.035Z,99867.97
2018-05-13T02:10:07.555Z,99856.30
2018-05-13T02:12:33.366Z,99852.86
2018-05-13T02:14:59.066Z,99858.66
2018-05-13T02:17:24.504Z,99859.94
2018-05-13T02:19:50.195Z,99857.06
2018-05-13T02:22:15.921Z,99853.22
2018-05-13T02:24:41.424Z,99857.36
2018-05-13T02:27:07.433Z,99851.81
2018-05-13T02:29:33.010Z,99848.41
2018-05-13T02:31:58.532Z,99853.91
2018-05-13T02:34:24.255Z,99848.08
2018-05-13T02:36:49.824Z,99854.97
2018-05-13T02:39:15.350Z,99852.37
2018-05-13T02:41:41.181Z,99845.30
2018-05-13T02:44:06.709Z,99853.23
2018-05-13T02:46:32.555Z,99846.41
2018-05-13T02:48:58.389Z,99845.94
2018-05-13T02:51:23.965Z,99851.45
2018-05-13T02:53:49.475Z,99846.34
2018-05-13T02:56:15.179Z,99847.94
2018-05-13T02:58:40.691Z,99842.94
2018-05-13T03:01:06.482Z,99847.97
2018-05-13T03:03:32.161Z,99842.75
2018-05-13T03:05:57.942Z,99836.36
2018-05-13T03:08:23.478Z,99849.33
2018-05-13T03:10:49.013Z,99844.02
2018-05-13T03:13:14.768Z,99836.48
2018-05-13T03:15:40.289Z,99850.95
2018-05-13T03:18:05.857Z,99838.73
2018-05-13T03:20:31.849Z,99857.43
2018-05-13T10:22:17.424Z,99933.72
2018-05-13T10:24:42.998Z,99936.70
2018-05-13T10:27:09.404Z,99929.47
2018-05-13T10:29:34.965Z,99934.55
2018-05-13T10:32:01.216Z,99934.66
2018-05-13T10:34:26.775Z,99933.12
2018-05-13T10:36:52.543Z,99934.66
2018-05-13T10:39:18.124Z,99931.70
2018-05-13T10:41:43.913Z,99936.55
2018-05-13T10:44:09.676Z,99932.30
2018-05-13T10:46:36.369Z,99946.27
2018-05-13T10:49:02.037Z,99942.61
2018-05-13T10:51:27.950Z,99933.25
2018-05-13T10:53:53.529Z,99939.30
2018-05-13T10:56:19.157Z,99944.77
2018-05-13T10:58:44.935Z,99946.45
2018-05-13T11:01:10.648Z,99951.24
2018-05-13T11:03:36.206Z,99946.05
2018-05-13T11:06:02.058Z,99952.81
2018-05-13T11:08:27.636Z,99954.62
2018-05-13T11:10:53.217Z,99947.33
2018-05-13T11:13:18.999Z,99956.22
2018-05-13T11:15:44.566Z,99959.17
2018-05-13T11:18:10.340Z,99951.86
2018-05-13T11:20:36.175Z,99956.22
2018-05-13T11:23:02.075Z,99954.59
2018-05-13T11:25:27.743Z,99945.20
2018-05-13T11:27:53.519Z,99947.46
2018-05-13T11:30:19.175Z,99937.24
2018-05-13T11:32:44.730Z,99943.36
2018-05-13T11:35:10.593Z,99951.64
2018-05-13T11:37:36.283Z,99936.44
2018-05-13T11:40:01.909Z,99933.23
2018-05-13T11:42:27.627Z,99928.01
2018-05-13T11:44:53.189Z,99930.41
2018-05-13T11:47:18.808Z,99926.64
2018-05-13T11:49:44.671Z,99933.29
2018-05-13T11:52:10.229Z,99926.33
2018-05-13T11:54:36.005Z,99922.95
2018-05-13T11:57:01.831Z,99920.11
2018-05-13T11:59:27.460Z,99920.72
2018-05-13T12:01:53.085Z,99933.76
2018-05-13T12:04:18.869Z,99919.33
2018-05-13T12:06:44.424Z,99915.84
2018-05-13T12:09:10.073Z,99909.09
2018-05-13T12:11:36.017Z,99909.78
2018-05-13T12:14:01.785Z,99918.22
2018-05-13T12:16:27.348Z,99917.42
2018-05-13T12:18:53.146Z,99912.95
2018-05-13T12:21:18.775Z,99912.84
2018-05-13T12:23:44.508Z,99911.63
2018-05-13T12:26:10.289Z,99907.20
2018-05-13T12:28:35.860Z,99915.91
2018-05-13T12:31:02.540Z,99903.56
2018-05-13T12:33:28.650Z,99901.30
2018-05-13T12:35:54.265Z,99910.52
2018-05-13T12:38:19.911Z,99904.09
2018-05-13T12:40:45.611Z,99908.43
2018-05-13T12:43:11.236Z,99902.36
2018-05-13T12:45:36.858Z,99910.15
2018-05-13T12:48:02.610Z,99905.32
2018-05-13T12:50:28.227Z,99912.89
2018-05-13T12:52:53.952Z,99903.21
2018-05-13T12:55:19.551Z,99908.84
2018-05-13T12:57:45.320Z,99907.69
2018-05-13T13:00:11.201Z,99900.42
2018-05-13T13:02:36.869Z,99899.04
2018-05-13T13:05:02.497Z,99891.72
2018-05-13T13:07:28.248Z,99891.12
2018-05-13T13:09:53.804Z,99893.42
2018-05-13T13:12:19.387Z,99883.55
2018-05-13T13:14:45.112Z,99887.44
2018-05-13T13:17:10.731Z,99884.45
2018-05-13T13:19:36.472Z,99872.20
2018-05-13T13:22:02.189Z,99875.31
2018-05-13T13:24:28.455Z,99867.95
2018-05-13T13:26:54.077Z,99867.27
2018-05-13T13:29:19.948Z,99872.03
2018-05-13T13:31:45.566Z,99866.61
2018-05-13T13:34:11.233Z,99878.77
2018-05-13T13:36:37.287Z,99870.69
2018-05-13T13:39:02.758Z,99869.29
2018-05-13T13:41:28.409Z,99866.47
2018-05-13T13:43:54.447Z,99871.08
2018-05-13T13:46:20.065Z,99875.51
2018-05-13T13:48:45.697Z,99864.11
2018-05-13T13:51:11.492Z,99864.42
2018-05-13T13:53:37.441Z,99864.36
2018-05-13T13:56:03.020Z,99865.41
2018-05-13T13:58:28.644Z,99860.25
2018-05-13T14:00:54.521Z,99850.13
2018-05-13T14:03:20.148Z,99841.77
2018-05-13T14:05:45.752Z,99845.88
2018-05-13T14:08:11.595Z,99841.97
2018-05-13T14:10:37.237Z,99845.94
2018-05-13T14:13:02.888Z,99848.05
2018-05-13T14:15:28.943Z,99848.10
2018-05-13T14:17:54.538Z,99842.66
2018-05-13T14:20:20.149Z,99849.30
2018-05-13T14:22:45.976Z,99852.29
2018-05-13T14:25:11.588Z,99852.41
2018-05-13T14:27:37.204Z,99840.17
2018-05-13T14:30:03.048Z,99840.73
2018-05-13T14:32:28.656Z,99837.56
2018-05-13T14:34:54.371Z,99834.50
2018-05-13T14:37:19.925Z,99834.89
2018-05-13T14:39:45.505Z,99837.69
2018-05-13T14:42:13.477Z,99828.34
2018-05-13T14:44:39.305Z,99830.16
2018-05-13T14:47:04.934Z,99831.84
2018-05-13T14:49:30.723Z,99822.06
2018-05-13T14:51:56.282Z,99814.47
2018-05-13T14:54:22.004Z,99807.16
2018-05-13T14:56:47.739Z,99813.55
2018-05-13T14:59:13.343Z,99812.06
2018-05-13T15:01:38.915Z,99802.42
2018-05-13T15:04:04.743Z,99804.02
2018-05-13T15:06:30.324Z,99801.68
2018-05-13T15:08:55.881Z,99795.84
2018-05-13T15:11:21.758Z,99799.66
2018-05-13T15:13:47.317Z,99792.50
2018-05-13T15:16:13.113Z,99790.33
2018-05-13T15:18:38.873Z,99779.90
2018-05-13T15:21:04.848Z,99779.13
2018-05-13T15:23:30.421Z,99783.42
2018-05-13T15:25:56.167Z,99790.22
2018-05-13T15:28:21.784Z,99790.44
2018-05-13T15:30:47.344Z,99793.07
2018-05-13T15:33:13.157Z,99788.16
2018-05-13T15:35:39.012Z,99792.58
2018-05-13T15:38:04.599Z,99783.44
2018-05-13T15:40:30.441Z,99784.95
2018-05-13T15:42:56.235Z,99785.63
2018-05-13T15:45:21.775Z,99786.68
2018-05-13T15:47:47.365Z,99782.95
2018-05-13T15:50:13.204Z,99767.44
2018-05-13T15:52:38.769Z,99771.17
2018-05-13T15:55:04.485Z,99770.48
2018-05-13T15:57:30.141Z,99765.50
2018-05-13T15:59:56.016Z,99774.56
2018-05-13T16:02:21.575Z,99765.08
2018-05-13T16:04:47.313Z,99768.23
2018-05-13T16:07:12.876Z,99759.11
2018-05-13T16:09:38.738Z,99762.86
2018-05-13T16:12:04.539Z,99759.73
2018-05-13T16:14:30.159Z,99755.83
2018-05-13T16:16:55.704Z,99757.37
2018-05-13T16:19:21.473Z,99759.98
2018-05-13T16:21:47.212Z,99755.31
2018-05-13T16:24:12.832Z,99758.48
2018-05-13T16:26:38.583Z,99762.65
2018-05-13T16:29:04.193Z,99760.35
2018-05-13T16:31:29.837Z,99761.39
2018-05-13T16:33:55.610Z,99760.53
2018-05-13T16:36:21.174Z,99772.86
2018-05-13T16:38:46.740Z,99773.96
2018-05-13T16:41:12.524Z,99777.19
2018-05-13T16:43:38.109Z,99766.79
2018-05-13T16:46:04.024Z,99775.22
2018-05-13T16:48:29.875Z,99771.05
2018-05-13T16:50:55.815Z,99772.48
2018-05-13T16:53:21.433Z,99770.73
2018-05-13T16:55:47.203Z,99779.00
2018-05-13T16:58:13.309Z,99767.20
2018-05-13T17:00:38.973Z,99767.38
2018-05-13T17:03:05.035Z,99773.10
2018-05-13T17:05:30.684Z,99771.49
2018-05-13T17:07:56.320Z,99778.02
2018-05-13T17:10:22.122Z,99772.48
2018-05-13T17:12:47.677Z,99768.92
2018-05-13T17:15:13.252Z,99767.08
2018-05-13T17:17:58.131Z,99769.66
2018-05-13T17:20:23.697Z,99761.73
2018-05-13T17:22:49.372Z,99762.34
2018-05-13T17:25:15.408Z,99759.07
2018-05-13T17:27:41.021Z,99762.00
2018-05-13T17:30:06.636Z,99761.76
2018-05-13T17:32:32.386Z,99756.05
2018-05-13T17:34:57.955Z,99757.25
2018-05-13T17:37:23.706Z,99756.33
2018-05-13T17:39:49.357Z,99751.78
2018-05-13T17:42:14.964Z,99762.72
2018-05-13T17:44:40.889Z,99759.30
2018-05-13T17:47:06.702Z,99756.26
2018-05-13T17:49:32.369Z,99759.86
2018-05-13T17:51:58.098Z,99750.09
2018-05-13T17:54:23.663Z,99748.73
2018-05-13T17:56:49.305Z,99743.81
2018-05-13T17:59:15.080Z,99738.83
2018-05-13T18:01:40.692Z,99738.47
2018-05-13T18:04:06.431Z,99740.53
2018-05-13T18:06:32.096Z,99739.70
2018-05-13T18:08:57.917Z,99740.13
2018-05-13T18:11:23.716Z,99741.80
2018-05-13T18:13:49.279Z,99734.03
2018-05-13T18:16:14.848Z,99732.10
2018-05-13T18:18:40.664Z,99726.20
2018-05-13T18:21:06.282Z,99743.27
2018-05-13T18:23:32.165Z,99748.48
2018-05-13T18:25:58.277Z,99749.59
2018-05-13T18:28:26.264Z,99750.09
2018-05-13T18:30:52.025Z,99742.00
2018-05-13T18:35:49.401Z,99749.34
2018-05-13T18:38:15.014Z,99742.67
2018-05-13T18:40:40.616Z,99742.80
2018-05-13T18:43:06.389Z,99752.33
2018-05-13T18:45:31.948Z,99757.00
2018-05-13T18:47:57.526Z,99765.13
2018-05-13T18:50:23.913Z,99763.20
2018-05-13T18:52:49.688Z,99753.43
2018-05-13T18:55:15.254Z,99743.30
2018-05-13T18:57:41.114Z,99735.61
2018-05-13T19:00:06.666Z,99732.45
2018-05-13T19:02:33.492Z,99734.84
2018-05-13T19:04:59.366Z,99752.77
2018-05-13T19:07:24.971Z,99758.14
2018-05-13T19:09:50.900Z,99767.30
2018-05-13T19:12:16.776Z,99758.73
2018-05-13T19:14:42.240Z,99747.09
2018-05-13T19:17:08.012Z,99740.65
2018-05-13T19:19:33.705Z,99743.30
2018-05-13T19:21:59.479Z,99739.44
2018-05-13T19:24:25.224Z,99735.64
2018-05-13T19:26:50.800Z,99739.23
2018-05-13T19:29:16.453Z,99733.60
2018-05-13T19:31:42.152Z,99733.06
2018-05-13T19:34:07.741Z,99729.29
2018-05-13T19:36:33.406Z,99728.92
2018-05-13T19:38:59.313Z,99718.06
2018-05-13T19:41:24.885Z,99718.41
2018-05-13T19:43:50.603Z,99726.99
2018-05-13T19:46:16.437Z,99742.36
2018-05-13T19:48:42.116Z,99749.20
2018-05-13T19:51:07.621Z,99739.19
2018-05-13T19:53:33.509Z,99735.33
2018-05-13T19:55:59.089Z,99718.13
2018-05-13T19:58:24.697Z,99718.66
2018-05-13T20:00:50.429Z,99724.26
2018-05-13T20:03:16.455Z,99714.13
2018-05-13T20:05:41.803Z,99722.80
2018-05-13T20:08:07.701Z,99726.83
2018-05-13T20:10:33.406Z,99723.89
2018-05-13T20:12:58.972Z,99716.91
2018-05-13T20:15:24.720Z,99719.52
2018-05-13T20:17:50.404Z,99712.53
2018-05-13T20:20:15.965Z,99714.62
2018-05-13T20:23:19.991Z,99717.23
2018-05-13T20:25:45.494Z,99723.91
2018-05-13T20:28:11.121Z,99717.23
2018-05-13T20:30:36.842Z,99728.86
2018-05-13T20:33:02.420Z,99728.05
2018-05-13T20:35:28.092Z,99724.41
2018-05-13T20:37:55.173Z,99731.58
2018-05-13T20:40:20.768Z,99717.75
2018-05-13T20:42:46.437Z,99729.36
2018-05-13T20:45:12.596Z,99737.73
2018-05-13T20:47:38.179Z,99733.16
2018-05-13T20:50:03.934Z,99731.66
2018-05-13T20:52:29.645Z,99732.45
2018-05-13T20:54:55.860Z,99725.90
2018-05-13T20:57:21.534Z,99732.97
2018-05-13T20:59:47.610Z,99726.63
2018-05-13T21:02:13.738Z,99728.19
2018-05-13T21:04:40.184Z,99723.58
2018-05-13T21:07:09.550Z,99721.20
2018-05-13T21:09:37.356Z,99721.36
2018-05-13T21:12:02.937Z,99722.23
2018-05-13T21:14:29.802Z,99713.74
2018-05-13T21:16:55.393Z,99708.68
2018-05-13T21:19:20.986Z,99708.39
2018-05-13T21:21:46.818Z,99711.59
2018-05-13T21:24:12.363Z,99704.91
2018-05-13T21:26:38.016Z,99699.80
2018-05-13T21:29:03.945Z,99697.08
2018-05-13T21:31:29.618Z,99705.41
2018-05-13T21:33:55.170Z,99694.78
2018-05-13T21:36:21.027Z,99698.64
2018-05-13T21:38:46.599Z,99702.97
2018-05-13T21:41:12.626Z,99704.61
2018-05-13T21:43:38.190Z,99696.78
2018-05-13T21:46:03.766Z,99705.84
2018-05-13T21:48:29.712Z,99698.94
2018-05-13T21:50:55.587Z,99699.08
2018-05-13T21:53:21.145Z,99699.69
2018-05-13T21:55:47.338Z,99701.66
2018-05-13T21:58:12.982Z,99700.97
2018-05-13T22:00:38.572Z,99697.95
2018-05-13T22:03:05.436Z,99692.78
2018-05-13T22:05:31.056Z,99695.36
2018-05-13T22:07:56.881Z,99691.32
2018-05-13T22:10:22.661Z,99697.29
2018-05-13T22:12:48.223Z,99697.58
2018-05-13T22:15:13.850Z,99696.22
2018-05-13T22:17:39.697Z,99692.69
2018-05-13T22:20:05.273Z,99692.41
2018-05-13T22:22:30.858Z,99687.09
2018-05-13T22:24:56.623Z,99692.77
2018-05-13T22:27:22.344Z,99692.84
2018-05-13T22:29:47.942Z,99687.08
2018-05-13T22:32:13.759Z,99685.15
2018-05-13T22:34:39.389Z,99691.05
2018-05-13T22:37:04.988Z,99686.48
2018-05-13T22:39:30.794Z,99679.56
2018-05-13T22:41:56.408Z,99680.91
2018-05-13T22:44:22.071Z,99679.75
2018-05-13T22:46:47.824Z,99672.21
2018-05-13T22:49:13.770Z,99677.38
2018-05-13T22:51:39.370Z,99686.59
2018-05-13T22:54:05.165Z,99673.73
2018-05-13T22:56:30.754Z,99681.42
2018-05-13T22:58:56.508Z,99685.86
2018-05-13T23:01:22.087Z,99686.38
2018-05-13T23:03:47.679Z,99687.02
2018-05-13T23:06:13.447Z,99687.95
2018-05-13T23:08:39.071Z,99684.42
2018-05-13T23:11:04.699Z,99681.55
2018-05-13T23:13:30.470Z,99692.77
2018-05-13T23:15:56.112Z,99697.50
2018-05-13T23:18:21.879Z,99692.33
2018-05-13T23:20:47.681Z,99689.96
2018-05-13T23:23:13.299Z,99701.55
2018-05-13T23:25:38.860Z,99688.80
2018-05-13T23:28:04.634Z,99686.95
2018-05-13T23:30:30.613Z,99697.80
2018-05-13T23:32:56.444Z,99697.22
2018-05-13T23:35:22.058Z,99691.97
2018-05-13T23:37:47.710Z,99701.39
2018-05-13T23:42:53.642Z,99690.19
2018-05-13T23:45:19.263Z,99687.67
2018-05-13T23:47:45.218Z,99685.78
2018-05-13T23:50:10.729Z,99685.50
2018-05-13T23:52:36.287Z,99683.39
2018-05-13T23:55:02.079Z,99696.75
2018-05-13T23:57:27.610Z,99686.95
2018-05-13T23:59:53.301Z,99686.30
